Time;durP1;ratioP1;P1;durP2;ratioP2;P2;SDS_P1;SDS_P2;PMS_P1;PMS_P2;Temp;Humidity;BMP_temperature;BMP_pressure;BME280_temperature;BME280_humidity;BME280_pressure;Samples;Min_cycle;Max_cycle;Signal;HPM_P1;HPM_P2
2023/04/19 00:02:07;;;;;;;1.95;1.17;;;20.60;62.50;;;;;;4986940;28;20051;-74
2023/04/19 00:04:36;;;;;;;1.42;0.90;;;20.60;62.50;;;;;;4988127;28;20054;-74
2023/04/19 00:07:04;;;;;;;2.38;0.73;;;20.60;62.50;;;;;;4988144;28;20061;-74
2023/04/19 00:09:30;;;;;;;1.58;0.75;;;20.50;62.40;;;;;;4988904;28;20038;-73
2023/04/19 00:11:59;;;;;;;1.40;0.55;;;20.60;63.00;;;;;;4986768;28;20503;-74
2023/04/19 00:14:26;;;;;;;1.58;0.60;;;20.50;62.40;;;;;;4983930;28;20046;-73
2023/04/19 00:16:53;;;;;;;2.25;0.60;;;20.50;62.40;;;;;;4983299;28;20472;-74
2023/04/19 00:19:22;;;;;;;1.60;0.75;;;20.50;62.40;;;;;;4971532;28;20058;-73
2023/04/19 00:21:49;;;;;;;1.40;0.70;;;20.50;62.40;;;;;;4979056;28;20823;-74
2023/04/19 00:24:16;;;;;;;1.98;0.70;;;20.50;62.50;;;;;;4982850;28;20057;-74
2023/04/19 00:26:43;;;;;;;1.85;0.77;;;20.50;62.40;;;;;;4980553;28;20118;-74
2023/04/19 00:29:11;;;;;;;1.52;0.60;;;20.50;62.40;;;;;;4979270;28;20046;-73
2023/04/19 00:31:38;;;;;;;1.50;0.70;;;20.50;62.40;;;;;;4986106;28;20939;-73
2023/04/19 00:34:06;;;;;;;2.03;0.70;;;20.50;62.40;;;;;;4988281;28;20166;-73
2023/04/19 00:36:33;;;;;;;2.40;1.10;;;20.40;62.40;;;;;;4986300;28;20137;-73
2023/04/19 00:39:00;;;;;;;1.52;0.70;;;20.50;62.40;;;;;;4986108;28;20058;-73
2023/04/19 00:41:26;;;;;;;1.70;0.80;;;20.50;62.40;;;;;;4985993;28;20052;-74
2023/04/19 00:43:53;;;;;;;1.48;0.65;;;20.40;62.90;;;;;;4987086;28;20109;-73
2023/04/19 00:46:22;;;;;;;1.90;0.80;;;20.40;62.30;;;;;;4991523;28;20100;-73
2023/04/19 00:48:50;;;;;;;2.22;0.77;;;20.50;62.40;;;;;;4988798;28;20332;-73
2023/04/19 00:51:17;;;;;;;1.70;0.80;;;20.40;62.30;;;;;;4988303;28;20061;-73
2023/04/19 00:53:44;;;;;;;1.92;0.80;;;20.40;62.90;;;;;;4991296;28;20092;-74
2023/04/19 00:56:13;;;;;;;2.33;1.00;;;20.40;62.40;;;;;;4986099;28;20054;-73
2023/04/19 00:58:40;;;;;;;2.00;0.85;;;20.40;62.30;;;;;;4986132;28;20051;-74
2023/04/19 01:01:07;;;;;;;1.55;0.70;;;20.40;62.30;;;;;;4988719;28;20050;-74
2023/04/19 01:03:36;;;;;;;1.83;0.73;;;20.40;62.40;;;;;;4981797;28;20484;-73
2023/04/19 01:06:03;;;;;;;1.58;0.77;;;20.40;62.40;;;;;;4990777;28;20503;-73
2023/04/19 01:08:30;;;;;;;1.45;0.60;;;20.30;62.30;;;;;;4988620;28;20153;-73
2023/04/19 01:10:57;;;;;;;1.80;0.80;;;20.30;62.30;;;;;;4985167;28;20054;-72
2023/04/19 01:13:24;;;;;;;1.65;0.57;;;20.30;62.30;;;;;;4989968;28;20076;-73
2023/04/19 01:15:51;;;;;;;1.92;0.65;;;20.30;62.30;;;;;;4991181;28;20046;-73
2023/04/19 01:18:18;;;;;;;1.77;0.85;;;20.30;62.30;;;;;;4994854;28;20212;-72
2023/04/19 01:20:47;;;;;;;1.40;0.57;;;20.30;62.30;;;;;;4999665;28;20140;-73
2023/04/19 01:23:15;;;;;;;3.58;0.90;;;20.30;62.40;;;;;;4994367;28;20057;-72
2023/04/19 01:25:42;;;;;;;1.63;0.70;;;20.30;62.30;;;;;;4992639;28;20807;-73
2023/04/19 01:28:09;;;;;;;1.85;0.65;;;20.30;62.30;;;;;;4990402;28;20129;-73
2023/04/19 01:30:37;;;;;;;1.65;0.70;;;20.30;62.40;;;;;;4995958;28;20049;-73
2023/04/19 01:33:04;;;;;;;1.45;0.60;;;20.30;62.40;;;;;;4989945;28;20518;-74
2023/04/19 01:35:31;;;;;;;1.85;0.80;;;20.20;62.30;;;;;;4991889;28;20085;-71
2023/04/19 01:37:58;;;;;;;2.45;0.65;;;20.30;62.40;;;;;;4991417;28;20050;-73
2023/04/19 01:40:26;;;;;;;2.30;0.90;;;20.30;62.30;;;;;;4990239;28;20683;-73
2023/04/19 01:42:53;;;;;;;2.00;0.90;;;20.20;62.30;;;;;;4991376;28;20051;-73
2023/04/19 01:45:20;;;;;;;1.58;0.70;;;20.20;62.20;;;;;;4990085;28;20057;-72
2023/04/19 01:47:47;;;;;;;1.50;0.70;;;20.20;62.20;;;;;;4989303;28;20054;-74
2023/04/19 01:50:14;;;;;;;1.55;0.63;;;20.20;62.20;;;;;;4991971;28;20058;-73
2023/04/19 01:52:41;;;;;;;1.63;0.73;;;20.20;62.20;;;;;;4989560;28;20538;-73
2023/04/19 01:55:09;;;;;;;1.80;0.80;;;20.20;62.20;;;;;;4989655;28;20046;-73
2023/04/19 01:57:37;;;;;;;1.85;0.68;;;20.20;62.20;;;;;;4990979;28;20065;-73
2023/04/19 02:00:05;;;;;;;1.73;0.80;;;20.20;62.20;;;;;;4991328;28;20050;-74
2023/04/19 02:02:32;;;;;;;1.98;0.90;;;20.20;62.30;;;;;;4990091;28;20534;-72
2023/04/19 02:04:58;;;;;;;1.55;0.70;;;20.20;62.20;;;;;;4991685;28;20050;-72
2023/04/19 02:07:25;;;;;;;1.52;0.75;;;20.20;62.20;;;;;;4991549;28;20053;-73
2023/04/19 02:09:52;;;;;;;1.50;0.70;;;20.20;62.20;;;;;;4982466;28;20533;-74
2023/04/19 02:12:19;;;;;;;2.25;0.90;;;20.20;62.20;;;;;;4987790;28;20109;-73
2023/04/19 02:14:47;;;;;;;1.85;0.70;;;20.20;62.20;;;;;;4985383;28;20535;-73
2023/04/19 02:17:14;;;;;;;1.60;0.65;;;20.20;62.20;;;;;;4984639;28;20046;-74
2023/04/19 02:19:41;;;;;;;1.75;0.90;;;20.10;62.20;;;;;;4989592;28;20057;-74
2023/04/19 02:22:08;;;;;;;1.80;0.75;;;20.10;62.20;;;;;;4987203;28;20053;-74
2023/04/19 02:24:35;;;;;;;2.00;0.82;;;20.10;62.20;;;;;;4995102;28;20093;-73
2023/04/19 02:27:02;;;;;;;2.55;1.10;;;20.10;62.20;;;;;;4992454;28;20136;-73
2023/04/19 02:29:29;;;;;;;2.30;0.95;;;20.10;62.80;;;;;;4987502;28;20479;-74
2023/04/19 02:31:57;;;;;;;1.77;0.60;;;20.10;62.20;;;;;;4975809;28;20061;-73
2023/04/19 02:34:24;;;;;;;1.40;0.63;;;20.10;62.20;;;;;;4990769;28;20050;-73
2023/04/19 02:36:51;;;;;;;1.95;0.80;;;20.00;62.20;;;;;;4989420;28;20042;-73
2023/04/19 02:39:18;;;;;;;4.07;0.88;;;20.10;62.20;;;;;;4995207;28;20438;-74
2023/04/19 02:41:45;;;;;;;1.60;0.70;;;20.00;62.20;;;;;;4988687;28;20150;-72
2023/04/19 02:44:12;;;;;;;1.50;0.80;;;20.00;62.10;;;;;;4987993;28;20137;-73
2023/04/19 02:46:39;;;;;;;1.40;0.70;;;20.00;62.20;;;;;;4989081;28;20046;-73
2023/04/19 02:49:08;;;;;;;1.80;0.70;;;20.00;62.50;;;;;;4990799;28;20046;-73
2023/04/19 02:51:35;;;;;;;1.77;0.60;;;20.00;62.10;;;;;;4978287;28;20061;-73
2023/04/19 02:54:02;;;;;;;2.08;0.90;;;20.00;62.10;;;;;;4987955;28;20054;-74
2023/04/19 02:56:28;;;;;;;1.52;0.60;;;20.00;62.10;;;;;;4990305;28;20053;-73
2023/04/19 02:58:55;;;;;;;1.73;0.63;;;20.00;62.10;;;;;;4989889;28;20423;-73
2023/04/19 03:01:23;;;;;;;1.65;0.77;;;20.00;62.10;;;;;;4988147;28;20661;-74
2023/04/19 03:03:50;;;;;;;2.10;0.60;;;20.00;62.10;;;;;;4990902;28;20074;-73
2023/04/19 03:06:18;;;;;;;1.60;0.70;;;20.00;62.10;;;;;;4987456;28;20058;-73
2023/04/19 03:08:45;;;;;;;1.80;0.88;;;20.00;62.10;;;;;;4989773;28;20050;-73
2023/04/19 03:11:13;;;;;;;1.42;0.80;;;19.90;62.00;;;;;;4988931;28;20054;-74
2023/04/19 03:13:40;;;;;;;1.73;0.60;;;20.00;62.10;;;;;;4988381;28;20042;-73
2023/04/19 03:16:08;;;;;;;1.40;0.73;;;20.00;62.10;;;;;;4989368;28;20042;-73
2023/04/19 03:18:35;;;;;;;2.20;0.75;;;20.00;62.00;;;;;;4979321;28;20503;-72
2023/04/19 03:21:03;;;;;;;1.83;0.82;;;20.00;62.00;;;;;;4987781;28;20471;-73
2023/04/19 03:23:31;;;;;;;2.03;0.70;;;19.90;62.00;;;;;;4988404;28;20139;-72
2023/04/19 03:25:58;;;;;;;1.98;1.02;;;19.90;62.00;;;;;;4987456;28;20046;-73
2023/04/19 03:28:25;;;;;;;2.47;0.85;;;19.90;62.00;;;;;;4987177;28;20046;-73
2023/04/19 03:30:52;;;;;;;1.55;0.43;;;19.90;62.00;;;;;;4986675;28;20502;-73
2023/04/19 03:33:18;;;;;;;1.90;0.93;;;19.90;62.60;;;;;;4988974;28;20049;-74
2023/04/19 03:35:45;;;;;;;1.70;0.80;;;19.90;62.00;;;;;;4985581;28;20496;-73
2023/04/19 03:38:12;;;;;;;1.50;0.68;;;19.90;62.00;;;;;;4998874;28;20058;-73
2023/04/19 03:40:41;;;;;;;1.55;0.60;;;19.90;62.00;;;;;;4988658;28;20077;-73
2023/04/19 03:43:07;;;;;;;1.40;0.60;;;19.90;62.00;;;;;;4989280;28;20045;-73
2023/04/19 03:45:34;;;;;;;1.90;0.80;;;19.90;62.00;;;;;;4989386;28;20043;-73
2023/04/19 03:48:01;;;;;;;2.90;0.70;;;19.90;62.00;;;;;;4976010;28;20050;-72
2023/04/19 03:50:28;;;;;;;1.80;0.70;;;19.80;61.90;;;;;;4980337;28;20043;-73
2023/04/19 03:52:55;;;;;;;1.83;0.93;;;19.90;61.90;;;;;;4983032;28;20523;-73
2023/04/19 03:55:22;;;;;;;1.60;0.65;;;19.90;61.90;;;;;;5002716;28;20043;-73
2023/04/19 03:57:50;;;;;;;1.45;0.77;;;19.80;61.90;;;;;;4989111;28;20058;-73
2023/04/19 04:00:18;;;;;;;1.92;1.05;;;19.80;61.90;;;;;;4989483;28;20116;-73
2023/04/19 04:02:45;;;;;;;2.10;1.00;;;19.80;61.90;;;;;;4988383;28;20065;-73
2023/04/19 04:05:11;;;;;;;2.10;0.90;;;19.80;61.90;;;;;;4989157;28;20054;-73
2023/04/19 04:07:38;;;;;;;2.22;0.90;;;19.80;61.90;;;;;;4985959;28;20046;-73
2023/04/19 04:10:06;;;;;;;1.80;0.60;;;19.80;61.90;;;;;;4989831;28;20100;-72
2023/04/19 04:12:33;;;;;;;1.70;0.85;;;19.80;61.90;;;;;;4988815;28;20057;-73
2023/04/19 04:15:02;;;;;;;1.63;0.90;;;19.70;61.80;;;;;;4983796;28;20058;-73
2023/04/19 04:17:29;;;;;;;2.15;0.52;;;19.80;61.90;;;;;;4980897;28;20046;-73
2023/04/19 04:19:56;;;;;;;1.70;0.93;;;19.80;61.90;;;;;;4987622;28;20062;-73
2023/04/19 04:22:23;;;;;;;1.77;0.77;;;19.70;62.50;;;;;;4987145;28;20058;-73
2023/04/19 04:24:49;;;;;;;1.30;0.50;;;19.70;61.80;;;;;;4989175;28;20047;-74
2023/04/19 04:27:19;;;;;;;2.17;0.93;;;19.70;61.80;;;;;;4988041;28;20054;-74
2023/04/19 04:29:48;;;;;;;1.50;0.80;;;19.70;61.80;;;;;;4990133;28;20094;-73
2023/04/19 04:32:16;;;;;;;1.88;0.82;;;19.70;61.80;;;;;;4995408;28;20142;-74
2023/04/19 04:34:44;;;;;;;2.35;0.90;;;19.70;61.80;;;;;;4988269;28;20058;-74
2023/04/19 04:37:11;;;;;;;1.75;0.70;;;19.70;61.70;;;;;;4986373;28;20053;-72
2023/04/19 04:39:38;;;;;;;1.50;0.65;;;19.70;61.70;;;;;;4989403;28;20058;-72
2023/04/19 04:42:07;;;;;;;1.60;0.55;;;19.70;61.70;;;;;;4982303;28;20051;-72
2023/04/19 04:44:34;;;;;;;1.88;0.90;;;19.70;61.70;;;;;;4984018;28;20096;-73
2023/04/19 04:47:01;;;;;;;1.60;0.60;;;19.70;61.70;;;;;;4989254;28;20062;-73
2023/04/19 04:49:30;;;;;;;1.80;0.95;;;19.70;61.70;;;;;;4987194;28;20047;-73
2023/04/19 04:51:57;;;;;;;1.50;0.82;;;19.70;61.70;;;;;;4992236;28;20508;-73
2023/04/19 04:54:24;;;;;;;1.48;0.70;;;19.70;61.70;;;;;;4988694;28;20156;-72
2023/04/19 04:56:51;;;;;;;1.50;0.73;;;19.70;61.60;;;;;;4998273;28;20129;-73
2023/04/19 04:59:18;;;;;;;1.77;0.75;;;19.70;61.70;;;;;;4986829;28;20069;-73
2023/04/19 05:01:45;;;;;;;2.40;1.10;;;19.70;61.70;;;;;;4986499;28;20129;-73
2023/04/19 05:04:12;;;;;;;1.60;0.55;;;19.70;61.60;;;;;;4985409;28;20054;-73
2023/04/19 05:06:40;;;;;;;1.50;0.77;;;19.70;61.60;;;;;;4987542;28;20065;-73
2023/04/19 05:09:07;;;;;;;1.58;0.63;;;19.70;61.60;;;;;;4985714;28;20043;-73
2023/04/19 05:11:34;;;;;;;1.58;0.77;;;19.70;61.60;;;;;;4985841;28;20137;-73
2023/04/19 05:14:01;;;;;;;1.55;0.70;;;19.70;61.70;;;;;;4986463;28;20062;-74
2023/04/19 05:16:28;;;;;;;1.65;0.80;;;19.70;61.60;;;;;;4986891;28;20787;-73
2023/04/19 05:18:55;;;;;;;1.70;0.65;;;19.60;61.50;;;;;;4989132;28;20091;-73
2023/04/19 05:21:22;;;;;;;1.50;0.70;;;19.70;61.60;;;;;;4985854;28;20062;-72
2023/04/19 05:23:52;;;;;;;1.60;0.80;;;19.70;61.50;;;;;;4988191;28;20054;-73
2023/04/19 05:26:19;;;;;;;1.58;0.80;;;19.70;61.50;;;;;;4987154;28;20137;-73
2023/04/19 05:28:46;;;;;;;1.30;0.40;;;19.70;61.50;;;;;;4987742;28;20046;-73
2023/04/19 05:31:13;;;;;;;1.50;0.60;;;19.70;61.40;;;;;;4988362;28;20141;-73
2023/04/19 05:33:40;;;;;;;1.77;0.60;;;19.70;61.40;;;;;;4990523;28;20075;-73
2023/04/19 05:36:08;;;;;;;1.52;0.68;;;19.70;61.40;;;;;;4992584;28;20052;-73
2023/04/19 05:38:35;;;;;;;1.90;0.80;;;19.70;61.40;;;;;;4991536;28;20407;-73
2023/04/19 05:41:04;;;;;;;1.60;0.90;;;19.70;61.30;;;;;;4990377;28;20046;-74
2023/04/19 05:43:31;;;;;;;1.55;0.70;;;19.70;61.40;;;;;;4991702;28;20058;-73
2023/04/19 05:45:58;;;;;;;1.77;0.80;;;19.70;61.30;;;;;;4991086;28;20459;-73
2023/04/19 05:48:25;;;;;;;1.45;0.82;;;19.70;61.30;;;;;;4987391;28;20054;-74
2023/04/19 05:50:53;;;;;;;1.60;0.65;;;19.70;61.30;;;;;;4989588;28;20090;-73
2023/04/19 05:53:20;;;;;;;1.45;0.70;;;19.70;61.30;;;;;;4986565;28;20046;-73
2023/04/19 05:55:49;;;;;;;1.65;0.70;;;19.80;61.30;;;;;;4989779;28;20053;-73
2023/04/19 05:58:22;;;;;;;1.70;0.80;;;19.80;61.30;;;;;;4997829;28;20104;-74
2023/04/19 06:00:49;;;;;;;1.42;0.55;;;19.80;61.30;;;;;;4988597;28;20129;-75
2023/04/19 06:03:16;;;;;;;1.40;0.60;;;19.80;61.30;;;;;;4985106;28;20546;-75
2023/04/19 06:05:42;;;;;;;1.58;0.57;;;19.80;61.30;;;;;;4984303;28;20077;-75
2023/04/19 06:08:10;;;;;;;1.60;0.70;;;19.80;61.30;;;;;;4986513;28;20050;-76
2023/04/19 06:10:37;;;;;;;1.58;0.63;;;19.80;61.20;;;;;;4983589;28;20081;-75
2023/04/19 06:13:04;;;;;;;1.40;0.60;;;19.90;61.30;;;;;;4987729;28;20042;-80
2023/04/19 06:15:33;;;;;;;3.85;0.63;;;19.90;61.30;;;;;;4982220;28;20053;-73
2023/04/19 06:18:00;;;;;;;1.77;0.63;;;19.90;61.50;;;;;;4985018;28;20058;-80
2023/04/19 06:20:27;;;;;;;1.50;0.65;;;20.00;61.60;;;;;;4974457;28;20065;-77
2023/04/19 06:22:53;;;;;;;2.42;0.60;;;20.00;61.60;;;;;;4994097;28;20060;-78
2023/04/19 06:25:20;;;;;;;1.98;0.93;;;20.10;61.60;;;;;;4983943;28;20117;-74
2023/04/19 06:27:47;;;;;;;1.55;0.43;;;20.20;61.60;;;;;;4987184;28;20168;-74
2023/04/19 06:30:14;;;;;;;1.80;0.75;;;20.20;61.60;;;;;;4978979;28;20050;-75
2023/04/19 06:32:43;;;;;;;2.15;0.95;;;20.30;61.50;;;;;;4991776;28;20076;-75
2023/04/19 06:35:10;;;;;;;1.42;0.52;;;20.40;61.50;;;;;;4985530;28;20058;-74
2023/04/19 06:37:37;;;;;;;3.40;0.90;;;20.40;61.40;;;;;;4986294;28;20059;-74
2023/04/19 06:40:07;;;;;;;1.95;0.63;;;20.50;61.30;;;;;;4987425;28;20065;-75
2023/04/19 06:42:34;;;;;;;2.17;0.75;;;20.60;61.90;;;;;;4984555;28;20137;-75
2023/04/19 06:45:01;;;;;;;1.80;0.70;;;20.60;61.10;;;;;;4987302;28;20047;-75
2023/04/19 06:47:29;;;;;;;1.50;0.70;;;20.70;61.00;;;;;;4984635;28;20054;-74
2023/04/19 06:49:57;;;;;;;2.42;1.00;;;20.70;60.90;;;;;;4979114;28;20054;-75
2023/04/19 06:52:24;;;;;;;1.52;0.80;;;20.70;60.80;;;;;;4985211;28;20054;-75
2023/04/19 06:54:52;;;;;;;1.73;0.80;;;20.80;60.70;;;;;;4985701;28;20499;-73
2023/04/19 06:57:19;;;;;;;2.33;0.95;;;20.80;60.60;;;;;;4985975;28;20606;-75
2023/04/19 06:59:46;;;;;;;1.92;0.77;;;20.80;60.50;;;;;;4987334;28;20050;-75
2023/04/19 07:02:13;;;;;;;1.95;0.73;;;20.80;60.50;;;;;;4986318;28;20061;-74
2023/04/19 07:04:40;;;;;;;1.70;0.55;;;20.90;60.40;;;;;;4986423;28;20058;-74
2023/04/19 07:07:08;;;;;;;1.75;0.70;;;20.90;60.30;;;;;;4984769;28;20045;-75
2023/04/19 07:09:35;;;;;;;1.98;1.00;;;20.90;60.20;;;;;;4986634;28;20047;-75
2023/04/19 07:12:02;;;;;;;1.95;0.68;;;20.90;60.20;;;;;;4988445;28;20054;-75
2023/04/19 07:14:29;;;;;;;1.75;0.65;;;20.90;60.10;;;;;;4985515;28;20054;-75
2023/04/19 07:16:56;;;;;;;2.03;0.70;;;20.90;60.10;;;;;;4985702;28;20054;-72
2023/04/19 07:19:22;;;;;;;1.60;0.60;;;20.90;60.10;;;;;;4983785;28;20055;-74
2023/04/19 07:21:50;;;;;;;1.58;0.60;;;20.90;60.10;;;;;;4987576;28;20506;-75
2023/04/19 07:24:18;;;;;;;2.05;0.63;;;20.90;60.10;;;;;;4986784;28;20052;-74
2023/04/19 07:26:45;;;;;;;1.90;0.70;;;20.90;60.10;;;;;;4984179;28;20526;-74
2023/04/19 07:29:12;;;;;;;1.20;0.43;;;20.90;60.00;;;;;;4986422;28;20039;-75
2023/04/19 07:31:40;;;;;;;1.65;0.68;;;20.90;60.00;;;;;;4988306;28;20077;-75
2023/04/19 07:34:07;;;;;;;1.90;0.70;;;20.90;60.00;;;;;;4989531;28;20121;-74
2023/04/19 07:36:35;;;;;;;2.63;0.80;;;20.90;60.00;;;;;;4987620;28;20050;-74
2023/04/19 07:39:03;;;;;;;1.50;0.82;;;20.90;60.00;;;;;;4985902;28;20116;-75
2023/04/19 07:41:31;;;;;;;1.42;0.65;;;20.90;60.50;;;;;;4984007;28;20061;-74
2023/04/19 07:43:58;;;;;;;1.48;0.40;;;20.90;59.90;;;;;;4986752;28;20062;-75
2023/04/19 07:46:25;;;;;;;1.77;0.77;;;20.90;59.90;;;;;;4979211;28;20050;-75
2023/04/19 07:48:52;;;;;;;2.03;0.90;;;20.90;59.90;;;;;;4986236;28;20061;-75
2023/04/19 07:51:19;;;;;;;1.35;0.50;;;20.90;60.50;;;;;;4985999;28;20042;-75
2023/04/19 07:53:47;;;;;;;2.47;1.02;;;20.90;59.90;;;;;;4988206;28;20106;-74
2023/04/19 07:56:14;;;;;;;2.05;0.90;;;20.90;59.90;;;;;;4985527;28;20055;-75
2023/04/19 07:58:43;;;;;;;1.80;0.57;;;20.90;59.90;;;;;;4976894;28;20503;-74
2023/04/19 08:01:10;;;;;;;2.33;0.63;;;20.90;60.50;;;;;;4988275;28;20057;-74
2023/04/19 08:03:37;;;;;;;1.65;0.80;;;20.90;59.90;;;;;;4987991;28;20038;-74
2023/04/19 08:06:07;;;;;;;1.60;0.77;;;20.90;59.90;;;;;;4980007;28;20141;-74
2023/04/19 08:08:34;;;;;;;1.58;0.47;;;20.90;60.00;;;;;;4984944;28;20038;-74
2023/04/19 08:11:02;;;;;;;1.77;0.70;;;20.90;60.00;;;;;;4984858;28;20084;-72
2023/04/19 08:13:29;;;;;;;1.67;0.77;;;20.90;60.60;;;;;;4981810;28;20089;-73
2023/04/19 08:15:57;;;;;;;2.53;0.80;;;20.90;60.00;;;;;;4979233;28;20054;-75
2023/04/19 08:18:24;;;;;;;1.75;0.95;;;20.90;60.00;;;;;;4985566;28;20042;-74
2023/04/19 08:20:51;;;;;;;1.50;0.60;;;20.90;60.00;;;;;;4986438;28;20050;-74
2023/04/19 08:23:18;;;;;;;1.50;0.70;;;20.90;60.00;;;;;;4983758;28;20173;-74
2023/04/19 08:25:45;;;;;;;2.05;0.82;;;20.90;60.00;;;;;;4995800;28;20069;-75
2023/04/19 08:28:12;;;;;;;1.70;0.70;;;20.90;60.10;;;;;;4982285;28;20057;-75
2023/04/19 08:30:39;;;;;;;1.30;0.57;;;20.90;60.10;;;;;;4986808;28;20582;-74
2023/04/19 08:33:08;;;;;;;1.70;0.70;;;20.90;60.10;;;;;;4985462;28;20050;-74
2023/04/19 08:35:35;;;;;;;1.50;0.75;;;20.80;60.00;;;;;;4987503;28;20834;-75
2023/04/19 08:38:03;;;;;;;1.55;0.50;;;20.80;60.00;;;;;;4984591;28;20117;-74
2023/04/19 08:40:31;;;;;;;2.03;0.77;;;20.90;60.10;;;;;;4987312;28;20419;-75
2023/04/19 08:42:58;;;;;;;1.90;0.70;;;20.80;60.00;;;;;;4986978;28;20054;-74
2023/04/19 08:45:27;;;;;;;1.65;0.77;;;20.90;60.10;;;;;;4984762;28;20723;-74
2023/04/19 08:47:55;;;;;;;1.90;0.57;;;20.90;60.10;;;;;;4983278;28;20055;-74
2023/04/19 08:50:24;;;;;;;2.35;0.57;;;20.80;60.00;;;;;;4980095;28;20054;-74
2023/04/19 08:52:51;;;;;;;1.50;0.65;;;20.90;60.10;;;;;;4986445;28;20046;-74
2023/04/19 08:55:18;;;;;;;1.52;0.60;;;20.80;60.00;;;;;;4985311;28;20069;-75
2023/04/19 08:57:45;;;;;;;1.60;0.68;;;20.90;60.10;;;;;;4987135;28;20112;-75
2023/04/19 09:00:13;;;;;;;1.70;0.52;;;20.90;60.00;;;;;;4992820;28;20038;-74
2023/04/19 09:02:48;;;;;;;1.73;0.70;;;20.90;60.10;;;;;;4974907;28;20412;-75
2023/04/19 09:05:16;;;;;;;1.25;0.47;;;20.90;60.10;;;;;;4987612;28;20058;-74
2023/04/19 09:07:45;;;;;;;2.08;0.63;;;20.80;60.00;;;;;;4987400;28;20129;-74
2023/04/19 09:10:15;;;;;;;1.60;0.70;;;20.90;60.10;;;;;;4988930;28;20389;-73
2023/04/19 09:12:42;;;;;;;1.52;0.55;;;20.90;60.10;;;;;;4989559;28;20065;-74
2023/04/19 09:15:10;;;;;;;2.20;0.85;;;20.90;60.10;;;;;;4988839;28;20077;-75
2023/04/19 09:17:38;;;;;;;1.42;0.40;;;20.90;60.10;;;;;;4986705;28;20519;-75
2023/04/19 09:20:07;;;;;;;2.47;0.70;;;20.90;60.10;;;;;;4983934;28;20061;-74
2023/04/19 09:22:34;;;;;;;1.92;0.68;;;20.90;60.10;;;;;;4983139;28;20511;-75
2023/04/19 09:25:02;;;;;;;1.60;0.82;;;20.90;60.10;;;;;;4974389;28;20061;-74
2023/04/19 09:27:30;;;;;;;1.75;0.85;;;20.90;60.10;;;;;;4990571;28;20125;-73
2023/04/19 09:29:58;;;;;;;2.13;0.82;;;20.90;60.00;;;;;;4979203;28;20057;-74
2023/04/19 09:32:27;;;;;;;1.50;0.60;;;20.90;60.00;;;;;;5000137;28;20096;-74
2023/04/19 09:34:55;;;;;;;1.23;0.60;;;20.90;60.00;;;;;;4995835;28;20050;-73
2023/04/19 09:37:23;;;;;;;2.10;0.75;;;21.00;60.00;;;;;;4990969;28;20072;-75
2023/04/19 09:39:50;;;;;;;1.70;0.40;;;21.00;60.00;;;;;;4988764;28;20050;-74
2023/04/19 09:42:19;;;;;;;1.42;0.57;;;21.00;60.00;;;;;;4988494;28;20062;-74
2023/04/19 09:45:01;;;;;;;2.45;0.60;;;21.00;60.00;;;;;;4988269;28;20057;-74
2023/04/19 09:47:30;;;;;;;1.88;1.17;;;21.00;60.00;;;;;;4983863;28;20050;-74
2023/04/19 09:50:07;;;;;;;1.80;0.40;;;21.00;59.90;;;;;;4983509;28;20058;-74
2023/04/19 09:52:35;;;;;;;1.25;0.52;;;21.00;59.90;;;;;;4986524;28;20066;-73
2023/04/19 09:55:04;;;;;;;1.67;0.60;;;21.00;60.40;;;;;;4989805;28;20851;-74
2023/04/19 09:57:34;;;;;;;1.30;0.55;;;21.00;59.80;;;;;;4987782;28;20061;-74
2023/04/19 10:00:05;;;;;;;1.30;0.50;;;21.10;59.90;;;;;;4990224;28;20073;-74
2023/04/19 10:02:34;;;;;;;1.40;0.50;;;21.00;59.80;;;;;;4983557;28;20046;-72
2023/04/19 10:05:01;;;;;;;1.40;0.47;;;21.00;59.80;;;;;;4988304;28;20122;-74
2023/04/19 10:07:29;;;;;;;1.35;0.50;;;21.00;59.70;;;;;;4990625;28;20061;-74
2023/04/19 10:09:58;;;;;;;1.40;0.45;;;21.10;59.80;;;;;;4988322;28;20133;-74
2023/04/19 10:12:26;;;;;;;1.15;0.50;;;21.10;59.80;;;;;;4987847;28;20117;-75
2023/04/19 10:14:57;;;;;;;1.42;0.45;;;21.10;59.70;;;;;;4984770;28;20050;-74
2023/04/19 10:17:25;;;;;;;1.50;0.70;;;21.10;59.70;;;;;;4987141;28;20494;-74
2023/04/19 10:19:57;;;;;;;1.42;0.63;;;21.10;59.70;;;;;;4987844;28;20207;-75
2023/04/19 10:22:25;;;;;;;1.52;0.65;;;21.10;59.60;;;;;;4986868;28;20155;-74
2023/04/19 10:25:09;;;;;;;1.30;0.45;;;21.20;59.60;;;;;;4983247;28;20049;-74
2023/04/19 10:27:36;;;;;;;1.55;0.38;;;21.20;59.60;;;;;;4979531;28;20093;-73
2023/04/19 10:30:09;;;;;;;1.65;0.70;;;21.20;59.50;;;;;;4981427;28;20052;-73
2023/04/19 10:32:41;;;;;;;1.23;0.50;;;21.20;59.50;;;;;;4975418;28;20519;-72
2023/04/19 10:35:08;;;;;;;1.05;0.50;;;21.20;59.50;;;;;;4982595;28;20467;-72
2023/04/19 10:37:40;;;;;;;2.72;0.70;;;21.30;59.60;;;;;;4986627;28;20042;-77
2023/04/19 10:40:08;;;;;;;1.33;0.70;;;21.30;59.50;;;;;;4986474;28;20085;-76
2023/04/19 10:43:15;;;;;;;1.85;0.82;;;21.30;59.50;;;;;;4984617;28;20137;-73
2023/04/19 10:45:44;;;;;;;1.63;0.55;;;21.30;59.50;;;;;;4988538;28;20512;-76
2023/04/19 10:48:36;;;;;;;1.35;0.50;;;21.40;59.40;;;;;;4981527;28;20128;-75
2023/04/19 10:51:06;;;;;;;2.10;0.60;;;21.40;59.40;;;;;;4989551;28;20050;-75
2023/04/19 10:53:47;;;;;;;1.58;0.55;;;21.40;59.40;;;;;;4988995;28;20439;-73
2023/04/19 10:56:15;;;;;;;1.50;0.40;;;21.50;60.10;;;;;;4989133;28;20511;-76
2023/04/19 10:59:20;;;;;;;1.30;0.50;;;21.50;59.30;;;;;;4989166;28;20059;-75
2023/04/19 11:01:53;;;;;;;1.58;0.60;;;21.50;59.40;;;;;;4986701;28;20125;-71
2023/04/19 11:04:22;;;;;;;3.10;0.43;;;21.50;59.40;;;;;;4984311;28;20049;-71
2023/04/19 11:07:04;;;;;;;1.23;0.43;;;21.50;59.30;;;;;;4984550;28;20439;-71
2023/04/19 11:09:33;;;;;;;1.20;0.38;;;21.60;59.40;;;;;;4987512;28;20046;-71
2023/04/19 11:12:02;;;;;;;1.40;0.52;;;21.60;59.40;;;;;;4988212;28;20134;-71
2023/04/19 11:14:32;;;;;;;1.60;0.70;;;21.60;59.40;;;;;;4984610;28;20050;-70
2023/04/19 11:17:02;;;;;;;1.38;0.47;;;21.70;59.40;;;;;;4988887;28;20058;-72
2023/04/19 11:19:29;;;;;;;2.83;0.50;;;21.60;59.30;;;;;;4978134;28;20057;-71
2023/04/19 11:21:59;;;;;;;2.00;0.47;;;21.70;59.40;;;;;;4988320;28;20053;-72
2023/04/19 11:24:26;;;;;;;1.17;0.40;;;21.70;59.30;;;;;;4987003;28;20633;-71
2023/04/19 11:26:52;;;;;;;1.20;0.30;;;21.70;59.30;;;;;;4987346;28;20100;-72
2023/04/19 11:29:21;;;;;;;1.83;0.43;;;21.70;59.20;;;;;;4979258;28;20050;-72
2023/04/19 11:31:48;;;;;;;1.30;0.43;;;21.80;59.30;;;;;;4978357;28;20590;-71
2023/04/19 11:34:18;;;;;;;1.52;0.35;;;21.80;59.20;;;;;;4988304;28;20050;-71
2023/04/19 11:36:49;;;;;;;1.13;0.45;;;21.80;59.20;;;;;;4986612;28;20058;-72
2023/04/19 11:39:16;;;;;;;1.15;0.35;;;21.80;59.20;;;;;;4983512;28;20558;-72
2023/04/19 11:41:43;;;;;;;1.67;0.50;;;21.80;59.10;;;;;;4975267;28;20057;-72
2023/04/19 11:44:13;;;;;;;1.83;0.80;;;21.90;59.00;;;;;;4986875;28;20393;-72
2023/04/19 11:46:41;;;;;;;1.35;0.50;;;21.90;59.00;;;;;;4986001;28;20474;-72
2023/04/19 11:49:08;;;;;;;1.08;0.45;;;21.90;59.00;;;;;;4980876;28;20793;-72
2023/04/19 11:51:41;;;;;;;1.50;0.35;;;21.90;59.00;;;;;;4985959;28;20046;-71
2023/04/19 11:54:15;;;;;;;1.00;0.40;;;22.00;59.70;;;;;;4984488;28;20455;-70
2023/04/19 11:57:03;;;;;;;1.33;0.50;;;22.00;59.00;;;;;;4984855;28;20098;-70
2023/04/19 11:59:32;;;;;;;1.42;0.40;;;22.00;59.00;;;;;;4986489;28;20050;-72
2023/04/19 12:02:09;;;;;;;1.90;0.35;;;22.00;59.00;;;;;;4984831;28;20049;-71
2023/04/19 12:04:37;;;;;;;1.52;0.50;;;22.00;58.90;;;;;;4987003;28;20491;-72
2023/04/19 12:07:06;;;;;;;1.20;0.52;;;22.00;58.90;;;;;;4980074;28;20054;-71
2023/04/19 12:09:35;;;;;;;1.40;0.55;;;22.00;58.80;;;;;;4986992;28;20141;-72
2023/04/19 12:12:03;;;;;;;1.48;0.40;;;22.10;58.90;;;;;;4985756;28;20109;-71
2023/04/19 12:14:30;;;;;;;1.10;0.65;;;22.10;58.80;;;;;;4984955;28;20109;-72
2023/04/19 12:17:09;;;;;;;1.55;0.50;;;22.10;58.80;;;;;;4983448;28;20081;-71
2023/04/19 12:19:37;;;;;;;1.75;0.60;;;22.10;58.80;;;;;;4986396;28;20050;-71
2023/04/19 12:22:18;;;;;;;1.60;0.75;;;22.10;58.70;;;;;;4977026;28;20420;-72
2023/04/19 12:24:45;;;;;;;1.98;0.50;;;22.20;58.70;;;;;;4991994;28;20055;-71
2023/04/19 12:27:12;;;;;;;1.90;0.52;;;22.20;58.60;;;;;;4986632;28;20057;-72
2023/04/19 12:29:39;;;;;;;1.58;0.52;;;22.20;58.50;;;;;;4985682;28;20046;-72
2023/04/19 12:32:06;;;;;;;1.95;0.82;;;22.30;58.60;;;;;;4985487;28;20052;-71
2023/04/19 12:34:33;;;;;;;1.55;0.43;;;22.30;58.50;;;;;;4991126;28;20038;-70
2023/04/19 12:37:01;;;;;;;1.27;0.40;;;22.30;58.50;;;;;;4986745;28;20057;-71
2023/04/19 12:39:29;;;;;;;1.50;0.43;;;22.30;58.50;;;;;;4990184;28;20050;-71
2023/04/19 12:41:56;;;;;;;1.20;0.40;;;22.30;58.50;;;;;;4991211;28;20400;-72
2023/04/19 12:44:23;;;;;;;2.45;0.50;;;22.40;58.40;;;;;;4991067;28;20081;-72
2023/04/19 12:46:50;;;;;;;1.60;0.55;;;22.40;58.40;;;;;;4984293;28;20058;-73
2023/04/19 12:49:19;;;;;;;1.17;0.40;;;22.40;58.40;;;;;;4987123;28;20092;-72
2023/04/19 12:51:47;;;;;;;1.40;0.30;;;22.40;58.40;;;;;;4990292;28;20092;-71
2023/04/19 12:54:14;;;;;;;1.30;0.50;;;22.40;58.40;;;;;;4988394;28;20058;-71